Time;durP1;ratioP1;P1;durP2;ratioP2;P2;SDS_P1;SDS_P2;PMS_P1;PMS_P2;Temp;Humidity;BMP_temperature;BMP_pressure;BME280_temperature;BME280_humidity;BME280_pressure;Samples;Min_cycle;Max_cycle;Signal;HPM_P1;HPM_P2
2022/09/28 00:01:24;;;;;;;2.53;0.70;;;12.90;91.60;;;;;;5089604;28;20031;-76
2022/09/28 00:03:52;;;;;;;0.90;0.40;;;12.90;91.60;;;;;;5092300;28;20040;-77
2022/09/28 00:06:20;;;;;;;0.70;0.60;;;13.00;91.60;;;;;;5093939;28;20442;-76
2022/09/28 00:08:48;;;;;;;2.97;0.70;;;13.00;91.50;;;;;;5108750;28;20085;-76
2022/09/28 00:11:16;;;;;;;1.08;0.60;;;13.00;91.50;;;;;;5092569;28;20067;-76
2022/09/28 00:13:42;;;;;;;0.90;0.73;;;13.00;91.50;;;;;;5093779;28;20359;-75
2022/09/28 00:16:12;;;;;;;1.48;0.50;;;13.00;91.50;;;;;;5093696;28;20019;-76
2022/09/28 00:18:39;;;;;;;1.23;0.60;;;13.00;91.40;;;;;;5093997;28;20068;-76
2022/09/28 00:21:15;;;;;;;1.10;0.57;;;13.00;91.40;;;;;;5093680;28;20028;-76
2022/09/28 00:26:27;;;;;;;0.77;0.75;;;13.00;91.30;;;;;;5093800;28;20034;-77
2022/09/28 00:28:57;;;;;;;0.73;0.60;;;13.00;91.30;;;;;;5093554;28;20023;-77
2022/09/28 00:31:23;;;;;;;1.17;0.77;;;13.00;91.20;;;;;;5093468;28;20032;-76
2022/09/28 00:33:56;;;;;;;0.52;0.52;;;12.90;91.10;;;;;;5093183;28;20020;-77
2022/09/28 00:36:31;;;;;;;0.68;0.50;;;12.90;91.00;;;;;;5093184;28;20107;-77
2022/09/28 00:38:58;;;;;;;1.30;0.77;;;12.80;90.90;;;;;;5093490;28;20055;-77
2022/09/28 00:41:26;;;;;;;0.57;0.40;;;12.80;91.00;;;;;;5092126;28;20028;-78
2022/09/28 00:43:53;;;;;;;1.65;0.50;;;12.70;91.00;;;;;;5093403;28;20016;-76
2022/09/28 00:46:32;;;;;;;2.85;0.40;;;12.80;91.20;;;;;;5093162;28;20040;-77
2022/09/28 00:49:10;;;;;;;0.52;0.40;;;12.80;91.30;;;;;;5093037;28;20107;-78
2022/09/28 00:51:38;;;;;;;0.82;0.40;;;12.80;91.40;;;;;;5093304;28;20028;-78
2022/09/28 00:54:06;;;;;;;1.40;0.47;;;12.80;91.40;;;;;;5093267;28;20028;-77
2022/09/28 00:56:35;;;;;;;0.57;0.38;;;12.90;91.80;;;;;;5108920;28;20156;-78
2022/09/28 00:59:03;;;;;;;0.75;0.63;;;12.90;91.50;;;;;;5093108;28;20382;-76
2022/09/28 01:01:29;;;;;;;4.28;0.70;;;12.90;91.50;;;;;;5093117;28;20063;-78
2022/09/28 01:03:57;;;;;;;1.85;0.60;;;12.90;91.40;;;;;;5092966;28;20028;-77
2022/09/28 01:06:27;;;;;;;0.50;0.50;;;13.00;91.40;;;;;;5092845;28;20099;-79
2022/09/28 01:08:57;;;;;;;1.05;0.43;;;13.00;91.30;;;;;;5092930;28;20501;-78
2022/09/28 01:11:24;;;;;;;0.70;0.52;;;13.00;91.20;;;;;;5093178;28;20062;-78
2022/09/28 01:13:53;;;;;;;0.98;0.60;;;12.90;91.10;;;;;;5092886;28;20023;-77
2022/09/28 01:16:37;;;;;;;0.40;0.30;;;12.90;91.00;;;;;;5092913;28;20032;-79
2022/09/28 01:19:05;;;;;;;2.42;0.50;;;12.80;90.80;;;;;;5093113;28;20024;-78
2022/09/28 01:21:49;;;;;;;1.55;0.40;;;12.80;90.70;;;;;;5112680;28;20385;-78
2022/09/28 01:24:39;;;;;;;0.35;0.30;;;12.70;90.60;;;;;;5112714;28;20525;-77
2022/09/28 01:27:26;;;;;;;0.28;0.28;;;12.60;90.60;;;;;;5090398;28;20035;-78
2022/09/28 01:30:16;;;;;;;5.05;0.47;;;12.60;90.50;;;;;;5112595;28;20028;-76
2022/09/28 01:32:45;;;;;;;0.30;0.30;;;12.50;90.50;;;;;;5096830;28;20023;-77
2022/09/28 01:35:19;;;;;;;1.10;0.30;;;12.40;90.50;;;;;;5112449;28;20461;-78
2022/09/28 01:37:59;;;;;;;0.73;0.25;;;12.40;90.40;;;;;;5096663;28;20024;-78
2022/09/28 01:40:27;;;;;;;0.77;0.43;;;12.30;90.50;;;;;;5096701;28;20448;-78
2022/09/28 01:43:11;;;;;;;0.82;0.38;;;12.30;90.50;;;;;;5112384;28;20111;-77
2022/09/28 01:45:44;;;;;;;2.58;0.40;;;12.20;90.40;;;;;;5096432;28;20048;-77
2022/09/28 01:48:15;;;;;;;0.73;0.60;;;12.20;90.40;;;;;;5094473;28;20105;-78
2022/09/28 01:50:43;;;;;;;1.20;0.60;;;12.10;90.40;;;;;;5095082;28;20016;-76
2022/09/28 01:53:16;;;;;;;0.57;0.32;;;12.00;90.40;;;;;;5095553;28;20107;-78
2022/09/28 01:55:49;;;;;;;0.60;0.35;;;12.00;90.50;;;;;;5096143;28;20091;-78
2022/09/28 01:58:27;;;;;;;0.32;0.30;;;12.00;90.70;;;;;;5095248;28;20020;-76
2022/09/28 02:00:58;;;;;;;1.33;0.45;;;12.00;90.80;;;;;;5096307;28;20052;-78
2022/09/28 02:03:32;;;;;;;0.65;0.30;;;12.00;90.80;;;;;;5094941;28;20032;-79
2022/09/28 02:06:08;;;;;;;0.98;0.40;;;12.00;90.80;;;;;;5096201;28;20070;-77
2022/09/28 02:08:35;;;;;;;4.63;0.43;;;12.00;90.80;;;;;;5094995;28;20089;-78
2022/09/28 02:11:21;;;;;;;4.05;0.75;;;12.00;90.80;;;;;;5096034;28;20020;-79
2022/09/28 02:14:10;;;;;;;0.60;0.47;;;12.00;90.80;;;;;;5096008;28;20013;-77
2022/09/28 02:16:41;;;;;;;0.65;0.30;;;12.00;90.80;;;;;;5095977;28;20466;-78
2022/09/28 02:19:11;;;;;;;0.50;0.45;;;12.00;90.70;;;;;;5094307;28;20032;-78
2022/09/28 02:22:12;;;;;;;0.30;0.20;;;12.00;90.70;;;;;;5095847;28;20478;-78
2022/09/28 02:24:39;;;;;;;1.58;0.70;;;12.00;90.60;;;;;;5095809;28;20027;-80
2022/09/28 02:27:24;;;;;;;1.27;0.52;;;12.00;90.60;;;;;;5095665;28;20085;-79
2022/09/28 02:29:49;;;;;;;0.95;0.50;;;11.90;90.60;;;;;;5095714;28;20427;-79
2022/09/28 02:32:18;;;;;;;1.45;0.47;;;11.90;90.60;;;;;;5094760;28;20024;-78
2022/09/28 02:34:44;;;;;;;0.43;0.32;;;11.90;90.60;;;;;;5095640;28;20024;-78
2022/09/28 02:37:10;;;;;;;2.90;0.30;;;11.90;90.60;;;;;;5095486;28;20031;-79
2022/09/28 02:39:36;;;;;;;0.70;0.32;;;11.90;90.70;;;;;;5095532;28;20028;-78
2022/09/28 02:42:16;;;;;;;0.30;0.30;;;11.90;90.80;;;;;;5095512;28;20385;-77
2022/09/28 02:44:51;;;;;;;0.47;0.45;;;11.90;90.90;;;;;;5095343;28;20024;-79
2022/09/28 02:47:32;;;;;;;0.45;0.32;;;12.00;91.10;;;;;;5095113;28;20044;-78
2022/09/28 02:50:36;;;;;;;0.57;0.40;;;12.00;91.10;;;;;;5095099;28;20016;-79
2022/09/28 02:53:21;;;;;;;0.40;0.30;;;12.10;91.30;;;;;;5052785;28;20033;-77
2022/09/28 02:55:49;;;;;;;;;;;12.10;91.10;;;;;;5053281;28;20051;-77
2022/09/28 02:58:24;;;;;;;0.65;0.50;;;12.20;91.60;;;;;;5052720;28;19905;-79
2022/09/28 03:00:59;;;;;;;0.73;0.47;;;12.30;91.20;;;;;;5035899;28;20025;-78
2022/09/28 03:03:44;;;;;;;1.00;0.45;;;12.30;91.20;;;;;;5052616;28;20044;-78
2022/09/28 03:06:30;;;;;;;1.38;0.35;;;12.30;91.10;;;;;;5052617;28;20103;-78
2022/09/28 03:09:40;;;;;;;2.17;0.32;;;12.30;91.10;;;;;;5052537;28;20036;-78
2022/09/28 03:12:17;;;;;;;1.08;0.40;;;12.40;91.20;;;;;;4990165;28;20036;-78
2022/09/28 03:14:44;;;;;;;2.90;0.38;;;12.40;91.10;;;;;;5052451;28;20025;-77
2022/09/28 03:17:09;;;;;;;1.48;0.57;;;12.50;91.10;;;;;;5052326;28;20024;-77
2022/09/28 03:19:36;;;;;;;0.57;0.43;;;12.50;91.10;;;;;;5052034;28;20086;-79
2022/09/28 03:22:02;;;;;;;0.38;0.30;;;12.50;91.00;;;;;;5052223;28;20107;-79
2022/09/28 03:24:27;;;;;;;1.08;0.40;;;12.50;90.90;;;;;;5052216;28;20124;-78
2022/09/28 03:26:53;;;;;;;1.30;0.50;;;12.50;90.80;;;;;;5035431;28;20116;-79
2022/09/28 03:29:19;;;;;;;0.40;0.40;;;12.50;90.70;;;;;;5082419;28;20048;-78
2022/09/28 03:31:46;;;;;;;1.67;0.57;;;12.50;90.70;;;;;;5094410;28;20030;-77
2022/09/28 03:34:12;;;;;;;0.70;0.60;;;12.50;90.50;;;;;;5093164;28;20030;-78
2022/09/28 03:36:38;;;;;;;1.08;0.47;;;12.40;90.40;;;;;;5094274;28;20541;-78
2022/09/28 03:39:03;;;;;;;0.88;0.77;;;12.40;90.30;;;;;;5094364;28;20028;-78
2022/09/28 03:41:29;;;;;;;1.60;0.70;;;12.40;90.20;;;;;;5094332;28;20028;-80
2022/09/28 03:43:55;;;;;;;2.83;0.57;;;12.30;90.20;;;;;;5094230;28;20028;-76
2022/09/28 03:46:21;;;;;;;1.02;0.70;;;12.30;90.20;;;;;;5092730;28;20520;-77
2022/09/28 03:48:47;;;;;;;0.88;0.50;;;12.30;90.10;;;;;;5094177;28;20024;-79
2022/09/28 03:51:13;;;;;;;2.85;0.50;;;12.20;90.00;;;;;;5093653;28;20496;-79
2022/09/28 03:53:39;;;;;;;1.85;0.60;;;12.10;89.70;;;;;;5094006;28;20027;-78
2022/09/28 03:56:13;;;;;;;0.75;0.60;;;12.10;89.70;;;;;;5093917;28;20017;-80
2022/09/28 03:58:39;;;;;;;;;;;12.00;89.40;;;;;;5093059;28;20035;-80
2022/09/28 04:01:07;;;;;;;2.30;0.50;;;12.00;90.30;;;;;;5094080;28;19926;-79
2022/09/28 04:03:33;;;;;;;0.55;0.40;;;11.90;89.60;;;;;;5093946;28;20409;-80
2022/09/28 04:06:00;;;;;;;3.67;0.55;;;11.80;89.30;;;;;;5093746;28;20027;-78
2022/09/28 04:08:26;;;;;;;0.43;0.35;;;11.80;89.20;;;;;;5093667;28;20044;-80
2022/09/28 04:10:56;;;;;;;0.52;0.47;;;11.70;89.00;;;;;;5092340;28;20089;-80
2022/09/28 04:13:22;;;;;;;1.50;0.47;;;11.70;88.80;;;;;;5093603;28;20020;-77
2022/09/28 04:15:55;;;;;;;0.95;0.50;;;11.60;88.80;;;;;;5093588;28;20024;-78
2022/09/28 04:18:22;;;;;;;4.72;1.00;;;11.50;88.40;;;;;;5093564;28;20046;-76
2022/09/28 04:20:58;;;;;;;4.32;0.70;;;11.50;88.60;;;;;;5093247;28;20038;-80
2022/09/28 04:23:23;;;;;;;1.45;0.55;;;11.40;88.40;;;;;;5092266;28;20500;-78
2022/09/28 04:25:52;;;;;;;0.40;0.40;;;11.40;88.60;;;;;;5093375;28;20055;-78
2022/09/28 04:31:02;;;;;;;1.63;0.70;;;11.30;88.60;;;;;;5093664;28;20031;-76
2022/09/28 04:33:28;;;;;;;1.77;0.88;;;11.30;88.70;;;;;;5093293;28;20440;-77
2022/09/28 04:35:54;;;;;;;2.55;1.40;;;11.20;88.50;;;;;;5091998;28;20020;-78
2022/09/28 04:38:20;;;;;;;4.47;1.52;;;11.20;88.60;;;;;;5093228;28;20465;-77
2022/09/28 04:40:48;;;;;;;2.17;1.10;;;11.20;88.70;;;;;;5093184;28;20020;-78
2022/09/28 04:43:14;;;;;;;1.23;1.00;;;11.20;88.70;;;;;;5093130;28;20059;-80
2022/09/28 04:45:39;;;;;;;3.22;1.10;;;11.20;88.90;;;;;;5092973;28;20072;-79
2022/09/28 04:48:06;;;;;;;1.70;0.70;;;11.20;89.10;;;;;;5091852;28;20375;-76
2022/09/28 04:50:32;;;;;;;1.73;0.95;;;11.20;89.10;;;;;;5092831;28;20150;-79
2022/09/28 04:53:00;;;;;;;1.05;0.90;;;11.20;89.10;;;;;;5093076;28;20091;-79
2022/09/28 04:55:31;;;;;;;1.58;1.00;;;11.20;89.10;;;;;;5092528;28;20016;-80
2022/09/28 04:58:01;;;;;;;0.85;0.82;;;11.20;89.10;;;;;;5093131;28;20384;-80
2022/09/28 05:00:28;;;;;;;1.00;0.93;;;11.20;89.00;;;;;;5092974;28;20023;-77
2022/09/28 05:02:54;;;;;;;1.50;1.00;;;11.20;88.90;;;;;;5092923;28;20020;-78
2022/09/28 05:05:20;;;;;;;1.48;1.00;;;11.20;88.80;;;;;;5091597;28;20469;-81
2022/09/28 05:07:46;;;;;;;2.53;1.40;;;11.20;88.90;;;;;;5092816;28;20020;-80
2022/09/28 05:10:12;;;;;;;1.00;0.90;;;11.20;88.90;;;;;;5092856;28;20478;-80
2022/09/28 05:12:38;;;;;;;2.13;1.23;;;11.20;89.00;;;;;;5092844;28;20020;-77
2022/09/28 05:15:04;;;;;;;1.92;1.40;;;11.20;89.10;;;;;;5092844;28;20024;-78
2022/09/28 05:17:30;;;;;;;9.15;1.70;;;11.30;89.20;;;;;;5092834;28;20020;-79
2022/09/28 05:19:56;;;;;;;2.65;1.65;;;11.30;89.40;;;;;;5092658;28;20054;-78
2022/09/28 05:22:23;;;;;;;1.77;1.48;;;11.40;89.50;;;;;;5092749;28;20052;-76
2022/09/28 05:24:49;;;;;;;1.95;1.33;;;11.40;89.40;;;;;;5092800;28;20039;-77
2022/09/28 05:27:15;;;;;;;2.85;1.77;;;11.50;89.60;;;;;;5092782;28;20056;-76
2022/09/28 05:29:40;;;;;;;2.42;1.80;;;11.60;89.90;;;;;;5077031;28;20056;-76
2022/09/28 05:32:06;;;;;;;2.47;1.50;;;11.70;90.00;;;;;;5072529;28;20020;-76
2022/09/28 05:34:32;;;;;;;5.93;1.65;;;11.80;90.00;;;;;;5072754;28;20017;-78
2022/09/28 05:36:58;;;;;;;3.25;1.98;;;11.80;90.00;;;;;;5072340;28;20096;-78
2022/09/28 05:39:24;;;;;;;4.53;1.80;;;11.90;90.00;;;;;;5072418;28;20033;-78
2022/09/28 05:41:50;;;;;;;6.28;2.20;;;12.00;89.90;;;;;;5072348;28;20025;-80
2022/09/28 05:44:15;;;;;;;5.13;2.08;;;12.00;89.60;;;;;;5072435;28;20077;-78
2022/09/28 05:46:41;;;;;;;6.15;2.50;;;12.10;89.40;;;;;;5072046;28;20494;-79
2022/09/28 05:49:07;;;;;;;3.25;1.95;;;12.10;88.90;;;;;;5087868;28;20531;-76
2022/09/28 05:51:33;;;;;;;3.65;2.20;;;12.20;88.60;;;;;;5091457;28;20029;-76
2022/09/28 05:53:59;;;;;;;7.28;2.20;;;12.20;88.10;;;;;;5091117;28;20032;-77
2022/09/28 05:56:25;;;;;;;4.45;2.13;;;12.30;87.90;;;;;;5092437;28;20466;-77
2022/09/28 05:58:51;;;;;;;3.72;2.03;;;12.30;87.70;;;;;;5092342;28;20032;-79
2022/09/28 06:01:16;;;;;;;2.60;1.83;;;12.40;87.60;;;;;;5092366;28;20493;-79
2022/09/28 06:03:42;;;;;;;3.45;1.92;;;12.40;87.50;;;;;;5092433;28;20035;-79
2022/09/28 06:06:08;;;;;;;4.45;2.67;;;12.50;87.80;;;;;;5093112;28;20023;-76
2022/09/28 06:08:34;;;;;;;3.95;1.88;;;12.50;87.40;;;;;;5096149;28;20039;-79
2022/09/28 06:11:01;;;;;;;6.57;2.85;;;12.50;87.60;;;;;;5096145;28;20026;-78
2022/09/28 06:13:30;;;;;;;3.28;2.42;;;12.60;87.90;;;;;;5094781;28;20024;-78
2022/09/28 06:15:56;;;;;;;4.97;2.95;;;12.70;88.60;;;;;;5096058;28;20016;-78
2022/09/28 06:18:22;;;;;;;6.63;3.55;;;12.90;89.10;;;;;;5096047;28;20028;-78
2022/09/28 06:20:48;;;;;;;8.18;5.28;;;13.00;89.00;;;;;;5094406;28;20416;-77
2022/09/28 06:23:14;;;;;;;9.48;5.90;;;13.00;88.20;;;;;;5094904;28;20103;-79
2022/09/28 06:25:40;;;;;;;9.07;5.28;;;13.00;86.40;;;;;;5095706;28;20028;-77
2022/09/28 06:28:10;;;;;;;10.10;6.03;;;13.00;85.20;;;;;;5095694;28;20023;-77
2022/09/28 06:30:37;;;;;;;7.90;4.82;;;13.00;84.20;;;;;;5095807;28;20016;-75
2022/09/28 06:33:05;;;;;;;7.80;4.93;;;12.90;83.40;;;;;;5095795;28;20409;-78
2022/09/28 06:35:31;;;;;;;9.07;4.60;;;12.90;83.60;;;;;;5095618;28;20431;-80
2022/09/28 06:37:58;;;;;;;8.32;5.53;;;12.80;83.80;;;;;;5095516;28;20110;-75
2022/09/28 06:40:25;;;;;;;7.53;5.03;;;12.80;84.20;;;;;;5095505;28;20028;-79
2022/09/28 06:42:56;;;;;;;9.07;5.68;;;12.80;84.80;;;;;;5095601;28;20108;-79
2022/09/28 06:45:24;;;;;;;12.15;5.75;;;12.90;85.20;;;;;;5093172;28;20369;-79
2022/09/28 06:48:09;;;;;;;12.20;5.20;;;12.90;85.30;;;;;;5095281;28;20029;-75
2022/09/28 06:50:38;;;;;;;11.07;4.85;;;13.00;85.70;;;;;;5093896;28;20034;-76
2022/09/28 06:53:06;;;;;;;8.35;5.18;;;13.00;85.60;;;;;;5095109;28;20097;-76
2022/09/28 06:55:32;;;;;;;10.50;6.00;;;13.10;85.70;;;;;;5095276;28;20082;-78
2022/09/28 06:58:00;;;;;;;16.48;7.20;;;13.20;85.70;;;;;;5094859;28;20024;-79
2022/09/28 07:00:28;;;;;;;14.52;7.07;;;13.30;85.70;;;;;;5074890;28;20150;-78
2022/09/28 07:02:54;;;;;;;9.73;5.78;;;13.50;86.20;;;;;;5073476;28;20036;-79
2022/09/28 07:05:25;;;;;;;9.57;4.68;;;13.60;85.80;;;;;;5074751;28;20029;-76
2022/09/28 07:07:55;;;;;;;8.23;3.22;;;13.70;84.80;;;;;;5073503;28;20474;-76
2022/09/28 07:10:26;;;;;;;4.90;3.15;;;13.80;83.50;;;;;;5114255;28;20499;-78
2022/09/28 07:12:53;;;;;;;7.18;2.50;;;13.80;82.60;;;;;;5115433;28;20476;-79
2022/09/28 07:15:20;;;;;;;8.05;2.75;;;13.90;81.80;;;;;;5113599;28;20043;-78
2022/09/28 07:17:46;;;;;;;7.28;2.83;;;14.00;81.70;;;;;;5114976;28;20389;-77
2022/09/28 07:20:13;;;;;;;7.28;2.42;;;14.10;81.60;;;;;;5107112;28;20056;-76
2022/09/28 07:22:39;;;;;;;5.80;2.80;;;14.00;80.40;;;;;;5094867;28;20028;-77
2022/09/28 07:25:06;;;;;;;4.97;2.72;;;14.10;80.40;;;;;;5108838;28;20445;-75
2022/09/28 07:27:32;;;;;;;4.47;2.70;;;14.20;79.50;;;;;;5113719;28;20036;-77
2022/09/28 07:29:58;;;;;;;5.15;2.72;;;14.20;79.80;;;;;;5080661;28;20021;-79
2022/09/28 07:32:26;;;;;;;12.52;5.82;;;14.30;79.20;;;;;;5074040;28;20094;-80
2022/09/28 07:34:52;;;;;;;9.23;4.88;;;14.30;79.10;;;;;;5088834;28;20385;-79
2022/09/28 07:37:19;;;;;;;3.88;2.78;;;14.40;79.20;;;;;;5093295;28;20131;-77
2022/09/28 07:42:29;;;;;;;4.70;2.72;;;14.40;78.10;;;;;;5094438;28;20092;-81
2022/09/28 07:44:56;;;;;;;3.97;2.13;;;14.50;78.20;;;;;;5094214;28;20051;-79
2022/09/28 07:47:25;;;;;;;5.50;2.63;;;14.50;77.70;;;;;;5095612;28;20073;-81
2022/09/28 07:49:57;;;;;;;8.60;2.97;;;14.60;78.10;;;;;;5109660;28;20489;-78
2022/09/28 07:52:25;;;;;;;7.95;2.90;;;14.60;76.80;;;;;;5093986;28;20035;-80
2022/09/28 07:54:52;;;;;;;4.15;2.17;;;14.70;77.40;;;;;;5110038;28;20028;-76
2022/09/28 07:57:19;;;;;;;3.75;2.25;;;14.80;77.20;;;;;;5100752;28;20016;-78
2022/09/28 07:59:45;;;;;;;5.05;2.00;;;14.90;77.30;;;;;;5114450;28;20034;-79
2022/09/28 08:02:11;;;;;;;3.55;2.13;;;15.00;76.30;;;;;;5114152;28;20027;-78
2022/09/28 08:04:37;;;;;;;3.63;2.10;;;15.10;76.90;;;;;;5114067;28;20032;-76
2022/09/28 08:07:08;;;;;;;6.75;1.98;;;15.10;76.10;;;;;;5112370;28;20041;-78
2022/09/28 08:09:34;;;;;;;10.63;4.88;;;15.20;75.30;;;;;;5114316;28;20027;-81
2022/09/28 08:12:00;;;;;;;12.15;5.75;;;15.30;76.00;;;;;;5112283;28;20091;-83
2022/09/28 08:14:27;;;;;;;6.88;3.03;;;15.40;78.50;;;;;;5095342;28;20116;-81
2022/09/28 08:16:53;;;;;;;4.35;2.40;;;15.60;79.70;;;;;;5093621;28;20031;-81
2022/09/28 08:19:18;;;;;;;9.43;1.80;;;15.70;78.30;;;;;;5093964;28;20075;-78
2022/09/28 08:21:44;;;;;;;9.65;1.85;;;15.90;78.10;;;;;;5093901;28;21076;-81
2022/09/28 08:24:14;;;;;;;6.85;1.30;;;16.10;79.20;;;;;;5092541;28;20016;-77
2022/09/28 08:26:41;;;;;;;7.03;1.77;;;16.20;76.50;;;;;;5093834;28;20051;-77
2022/09/28 08:29:07;;;;;;;7.53;1.77;;;16.30;75.80;;;;;;5093217;28;20039;-83
2022/09/28 08:31:33;;;;;;;3.65;1.60;;;16.40;77.80;;;;;;5106725;28;20058;-80
2022/09/28 08:33:59;;;;;;;3.60;1.33;;;16.50;78.10;;;;;;5113997;28;20031;-78
2022/09/28 08:36:25;;;;;;;2.10;1.30;;;16.60;77.40;;;;;;5112758;28;20024;-82
2022/09/28 08:38:51;;;;;;;1.80;1.17;;;16.70;76.90;;;;;;5096927;28;20031;-78
2022/09/28 08:41:28;;;;;;;3.83;1.45;;;16.80;77.80;;;;;;5093547;28;20035;-81
2022/09/28 08:43:54;;;;;;;4.10;1.50;;;16.80;75.50;;;;;;5093675;28;20499;-82
2022/09/28 08:46:25;;;;;;;3.15;1.40;;;16.80;75.40;;;;;;5092983;28;20047;-77
2022/09/28 08:49:03;;;;;;;3.30;1.77;;;16.90;77.00;;;;;;5093387;28;20408;-77
2022/09/28 08:51:42;;;;;;;10.60;1.92;;;17.00;76.30;;;;;;5093370;28;20079;-78
2022/09/28 08:54:35;;;;;;;5.90;1.85;;;17.10;75.80;;;;;;5093178;28;20042;-77
2022/09/28 08:57:09;;;;;;;4.95;2.13;;;17.10;73.80;;;;;;5093497;28;20021;-80
2022/09/28 08:59:57;;;;;;;4.13;2.17;;;17.20;75.70;;;;;;5093280;28;20428;-78
2022/09/28 09:02:28;;;;;;;4.35;1.60;;;17.30;75.30;;;;;;5093309;28;20020;-80
2022/09/28 09:04:55;;;;;;;7.57;2.15;;;17.30;73.60;;;;;;5093248;28;20024;-84
2022/09/28 09:07:59;;;;;;;4.78;2.35;;;17.40;74.40;;;;;;5083290;28;20469;-82
2022/09/28 09:11:02;;;;;;;4.72;2.33;;;17.50;76.40;;;;;;5093294;28;20028;-84
2022/09/28 09:14:07;;;;;;;3.75;2.33;;;17.60;75.50;;;;;;5077860;28;20405;-77
2022/09/28 09:16:33;;;;;;;;;;;17.80;76.60;;;;;;5081171;28;20112;-81
2022/09/28 09:19:36;;;;;;;5.25;2.53;;;17.90;78.60;;;;;;5092554;28;20361;-76
2022/09/28 09:22:16;;;;;;;5.65;2.60;;;18.10;75.40;;;;;;5094190;28;20031;-82
2022/09/28 09:24:49;;;;;;;6.75;2.88;;;18.20;75.40;;;;;;5093174;28;20024;-80
2022/09/28 09:27:30;;;;;;;7.05;2.97;;;18.30;73.50;;;;;;5078091;28;20024;-77
2022/09/28 09:30:16;;;;;;;7.30;2.60;;;18.40;72.40;;;;;;5091719;28;20420;-82
2022/09/28 09:33:22;;;;;;;5.13;2.75;;;18.50;73.00;;;;;;5092846;28;20359;-78
2022/09/28 09:36:22;;;;;;;5.20;2.80;;;18.60;71.00;;;;;;5072514;28;20036;-76
2022/09/28 09:38:57;;;;;;;6.57;2.70;;;18.60;70.20;;;;;;5072647;28;20480;-78
2022/09/28 09:41:56;;;;;;;5.63;2.60;;;18.70;72.40;;;;;;5086927;28;20025;-77
2022/09/28 09:44:43;;;;;;;6.93;2.83;;;18.80;71.40;;;;;;5096552;28;20024;-79
2022/09/28 09:47:23;;;;;;;6.32;3.17;;;18.90;71.80;;;;;;5095929;28;20154;-76
2022/09/28 09:50:00;;;;;;;7.25;3.30;;;18.90;69.20;;;;;;5096102;28;20082;-75
2022/09/28 09:52:37;;;;;;;9.45;2.75;;;19.00;68.10;;;;;;5096369;28;20107;-81
2022/09/28 09:55:13;;;;;;;12.52;3.85;;;19.00;68.70;;;;;;5096216;28;20035;-77
2022/09/28 09:57:50;;;;;;;5.45;2.70;;;19.00;66.10;;;;;;5096433;28;20043;-77
2022/09/28 10:00:16;;;;;;;9.85;3.17;;;19.10;68.90;;;;;;5094956;28;20059;-76
2022/09/28 10:02:46;;;;;;;7.90;3.20;;;19.10;66.60;;;;;;5085949;28;20056;-80
2022/09/28 10:05:16;;;;;;;10.05;5.55;;;19.10;66.30;;;;;;5075957;28;20016;-81
2022/09/28 10:08:01;;;;;;;6.43;2.90;;;19.10;66.70;;;;;;5092188;28;20020;-77
2022/09/28 10:10:37;;;;;;;5.50;3.20;;;19.10;66.80;;;;;;5096274;28;20067;-80
2022/09/28 10:13:04;;;;;;;4.97;2.33;;;19.20;66.30;;;;;;5095961;28;20020;-78
2022/09/28 10:15:32;;;;;;;6.97;2.10;;;19.20;66.60;;;;;;5095837;28;20020;-80
2022/09/28 10:18:02;;;;;;;4.50;2.05;;;19.20;64.50;;;;;;5094424;28;20028;-81
2022/09/28 10:20:32;;;;;;;4.03;1.92;;;19.20;62.30;;;;;;5094690;28;20462;-80
2022/09/28 10:23:01;;;;;;;4.10;1.98;;;19.20;64.20;;;;;;5094467;28;20028;-80
2022/09/28 10:25:31;;;;;;;3.28;2.00;;;19.20;61.50;;;;;;5096176;28;20073;-75
2022/09/28 10:27:59;;;;;;;3.67;1.52;;;19.10;60.50;;;;;;5095740;28;20024;-77
2022/09/28 10:30:25;;;;;;;8.80;1.60;;;19.00;61.30;;;;;;5100172;28;20461;-78
2022/09/28 10:32:57;;;;;;;8.50;1.90;;;19.00;62.70;;;;;;5086044;28;20025;-77
2022/09/28 10:35:39;;;;;;;6.00;2.05;;;18.90;60.80;;;;;;5106575;28;20020;-77
2022/09/28 10:38:13;;;;;;;5.50;1.85;;;18.90;61.70;;;;;;5083130;28;20074;-80
2022/09/28 10:40:46;;;;;;;;;;;19.00;64.80;;;;;;5096414;28;20373;-78
2022/09/28 10:43:30;;;;;;;3.30;1.90;;;19.10;67.20;;;;;;5092819;28;20400;-80
2022/09/28 10:46:06;;;;;;;5.38;2.25;;;19.10;63.40;;;;;;5105113;28;20127;-80
2022/09/28 10:48:57;;;;;;;3.58;1.95;;;19.20;64.60;;;;;;5094740;28;20070;-74
2022/09/28 10:51:40;;;;;;;6.18;1.92;;;19.20;64.10;;;;;;5094966;28;20099;-82
2022/09/28 10:54:15;;;;;;;3.35;2.03;;;19.30;63.80;;;;;;5111049;28;20031;-76
2022/09/28 10:56:41;;;;;;;5.15;2.55;;;19.40;63.40;;;;;;5113787;28;20081;-76
2022/09/28 10:59:30;;;;;;;2.60;2.03;;;19.40;63.40;;;;;;5097173;28;20089;-79
2022/09/28 11:02:19;;;;;;;2.88;2.00;;;19.50;61.70;;;;;;5089340;28;20498;-73
2022/09/28 11:04:55;;;;;;;5.40;2.22;;;19.50;62.50;;;;;;5095908;28;20031;-80
2022/09/28 11:07:24;;;;;;;5.03;2.35;;;19.60;62.20;;;;;;5095017;28;20024;-78
2022/09/28 11:09:52;;;;;;;6.63;2.00;;;19.60;60.20;;;;;;5103496;28;20106;-73
2022/09/28 11:12:22;;;;;;;9.10;2.63;;;19.60;61.70;;;;;;5113223;28;20024;-68
2022/09/28 11:14:55;;;;;;;4.50;2.13;;;19.60;61.40;;;;;;5093338;28;20028;-77
2022/09/28 11:17:42;;;;;;;4.85;2.83;;;19.70;62.00;;;;;;5093334;28;20020;-76
2022/09/28 11:20:23;;;;;;;4.55;2.47;;;19.80;63.30;;;;;;5093565;28;20481;-76
2022/09/28 11:22:54;;;;;;;4.07;1.88;;;20.00;65.10;;;;;;5094786;28;20035;-76
2022/09/28 11:25:23;;;;;;;4.28;2.58;;;20.10;63.10;;;;;;5094771;28;20056;-77
2022/09/28 11:27:52;;;;;;;4.57;1.27;;;20.20;60.50;;;;;;5094637;28;20500;-76
2022/09/28 11:30:22;;;;;;;1.88;0.90;;;20.30;59.70;;;;;;5076878;28;20035;-78
2022/09/28 11:32:49;;;;;;;1.83;0.88;;;20.40;58.10;;;;;;5074331;28;20012;-77
2022/09/28 11:35:26;;;;;;;1.58;1.00;;;20.40;59.00;;;;;;5074345;28;20024;-76
2022/09/28 11:37:58;;;;;;;7.03;1.40;;;20.40;58.20;;;;;;5074238;28;20389;-76
2022/09/28 11:40:29;;;;;;;1.55;0.90;;;20.40;58.00;;;;;;5072978;28;20052;-75
2022/09/28 11:43:33;;;;;;;3.33;1.00;;;20.50;57.50;;;;;;5074172;28;20024;-78
2022/09/28 11:46:16;;;;;;;2.47;1.30;;;20.50;57.70;;;;;;5077003;28;20168;-76
2022/09/28 11:48:48;;;;;;;1.98;0.82;;;20.50;56.10;;;;;;5054952;28;20051;-78
2022/09/28 11:51:30;;;;;;;1.50;0.82;;;20.40;56.30;;;;;;5055149;28;20025;-76
2022/09/28 11:54:03;;;;;;;2.22;0.70;;;20.40;57.00;;;;;;5071763;28;20036;-77
2022/09/28 11:56:38;;;;;;;1.38;0.73;;;20.40;55.70;;;;;;5071728;28;20025;-76
2022/09/28 11:59:26;;;;;;;3.97;0.88;;;20.40;56.00;;;;;;5071644;28;20025;-76
2022/09/28 12:02:16;;;;;;;1.92;0.90;;;20.40;56.10;;;;;;5058950;28;20051;-76
2022/09/28 12:04:51;;;;;;;0.90;0.60;;;20.30;55.60;;;;;;5070668;28;20056;-76
2022/09/28 12:07:17;;;;;;;0.95;0.55;;;20.30;55.60;;;;;;5071433;28;20033;-74
2022/09/28 12:09:57;;;;;;;6.53;0.90;;;20.30;56.70;;;;;;5071446;28;20028;-75
2022/09/28 12:12:32;;;;;;;3.40;0.80;;;20.30;56.10;;;;;;5071479;28;20017;-75
2022/09/28 12:15:10;;;;;;;1.35;0.85;;;20.30;55.40;;;;;;5071510;28;20024;-75
2022/09/28 12:17:42;;;;;;;2.83;0.93;;;20.30;55.60;;;;;;5054101;28;20054;-73
2022/09/28 12:20:33;;;;;;;2.95;0.98;;;20.20;56.00;;;;;;5084940;28;20043;-77
2022/09/28 12:23:25;;;;;;;2.50;1.35;;;20.20;57.30;;;;;;5087403;28;20442;-76
2022/09/28 12:26:17;;;;;;;1.58;0.80;;;20.20;56.60;;;;;;5091451;28;20036;-76
2022/09/28 12:28:48;;;;;;;1.67;0.60;;;20.20;57.50;;;;;;5076473;28;20067;-81
2022/09/28 12:31:27;;;;;;;1.13;0.70;;;20.10;56.30;;;;;;5112609;28;20027;-77
2022/09/28 12:33:53;;;;;;;2.75;0.65;;;19.90;56.10;;;;;;5112677;28;20445;-79
2022/09/28 12:36:53;;;;;;;4.38;0.68;;;19.90;57.10;;;;;;5113600;28;20035;-77
2022/09/28 12:39:31;;;;;;;1.10;0.60;;;19.80;58.40;;;;;;5113860;28;20389;-76
2022/09/28 12:42:43;;;;;;;1.90;1.02;;;19.80;58.60;;;;;;5113812;28;20143;-77
2022/09/28 12:45:36;;;;;;;2.92;1.40;;;19.80;58.90;;;;;;5064261;28;20486;-75
2022/09/28 12:48:20;;;;;;;2.47;1.50;;;19.90;57.70;;;;;;5073008;28;20032;-77
2022/09/28 12:51:06;;;;;;;2.05;1.40;;;20.00;57.70;;;;;;5073217;28;20031;-76
2022/09/28 12:54:00;;;;;;;1.50;1.00;;;20.10;57.70;;;;;;5073076;28;20021;-77
2022/09/28 12:56:46;;;;;;;1.63;0.85;;;20.10;56.40;;;;;;5073057;28;20017;-77
2022/09/28 12:59:24;;;;;;;0.88;0.52;;;20.20;58.30;;;;;;5072962;28;20032;-75
2022/09/28 13:02:19;;;;;;;0.80;0.40;;;20.30;57.70;;;;;;5072929;28;20025;-75
2022/09/28 13:04:57;;;;;;;2.95;0.55;;;20.30;58.20;;;;;;5018566;28;20049;-75
2022/09/28 13:07:36;;;;;;;1.33;1.20;;;20.30;55.20;;;;;;5072829;28;20039;-78
2022/09/28 13:10:21;;;;;;;1.25;0.50;;;20.30;55.90;;;;;;5072905;28;20028;-78
2022/09/28 13:12:52;;;;;;;;;;;20.20;54.50;;;;;;5073312;28;20043;-78
2022/09/28 13:15:30;;;;;;;0.57;0.40;;;20.20;57.30;;;;;;5073760;28;20388;-75
2022/09/28 13:18:06;;;;;;;2.67;0.30;;;20.20;55.50;;;;;;5095694;28;20039;-76
2022/09/28 13:20:42;;;;;;;2.75;0.30;;;20.10;53.80;;;;;;5097436;28;20477;-78
2022/09/28 13:23:28;;;;;;;1.95;0.40;;;20.00;53.70;;;;;;5096972;28;20024;-78
2022/09/28 13:26:17;;;;;;;0.50;0.43;;;20.00;53.60;;;;;;5096766;28;20020;-78